sensor_id;sensor_type;location;lat;lon;timestamp;temperature;humidity
74359;DHT22;62792;46.236;6.040;2023-01-26T00:02:08;21.40;36.80
74359;DHT22;62792;46.236;6.040;2023-01-26T00:07:11;21.50;36.70
74359;DHT22;62792;46.236;6.040;2023-01-26T00:12:15;21.50;36.50
74359;DHT22;62792;46.236;6.040;2023-01-26T00:17:18;21.50;36.80
74359;DHT22;62792;46.236;6.040;2023-01-26T00:22:28;21.30;36.70
74359;DHT22;62792;46.236;6.040;2023-01-26T00:27:32;21.30;36.70
74359;DHT22;62792;46.236;6.040;2023-01-26T00:32:35;21.10;36.70
74359;DHT22;62792;46.236;6.040;2023-01-26T00:37:39;21.00;36.90
74359;DHT22;62792;46.236;6.040;2023-01-26T00:42:44;21.00;36.80
74359;DHT22;62792;46.236;6.040;2023-01-26T00:47:46;21.00;37.10
74359;DHT22;62792;46.236;6.040;2023-01-26T00:52:50;21.10;36.90
74359;DHT22;62792;46.236;6.040;2023-01-26T00:57:55;21.30;36.60
74359;DHT22;62792;46.236;6.040;2023-01-26T01:02:58;21.30;36.60
74359;DHT22;62792;46.236;6.040;2023-01-26T01:08:01;21.30;36.60
74359;DHT22;62792;46.236;6.040;2023-01-26T01:13:05;21.30;36.60
74359;DHT22;62792;46.236;6.040;2023-01-26T01:18:08;21.30;36.50
74359;DHT22;62792;46.236;6.040;2023-01-26T01:23:11;21.30;36.50
74359;DHT22;62792;46.236;6.040;2023-01-26T01:28:15;21.40;36.40
74359;DHT22;62792;46.236;6.040;2023-01-26T01:33:18;21.30;36.50
74359;DHT22;62792;46.236;6.040;2023-01-26T01:38:21;21.40;36.40
74359;DHT22;62792;46.236;6.040;2023-01-26T01:43:26;21.20;36.40
74359;DHT22;62792;46.236;6.040;2023-01-26T01:48:30;21.00;36.40
74359;DHT22;62792;46.236;6.040;2023-01-26T01:53:38;20.90;36.70
74359;DHT22;62792;46.236;6.040;2023-01-26T01:58:44;21.00;36.40
74359;DHT22;62792;46.236;6.040;2023-01-26T02:03:47;21.20;36.30
74359;DHT22;62792;46.236;6.040;2023-01-26T02:08:51;21.40;36.30
74359;DHT22;62792;46.236;6.040;2023-01-26T02:13:57;21.40;36.10
74359;DHT22;62792;46.236;6.040;2023-01-26T02:19:01;21.30;36.10
74359;DHT22;62792;46.236;6.040;2023-01-26T02:24:06;21.30;36.10
74359;DHT22;62792;46.236;6.040;2023-01-26T02:29:15;21.20;36.10
74359;DHT22;62792;46.236;6.040;2023-01-26T02:34:18;20.90;36.50
74359;DHT22;62792;46.236;6.040;2023-01-26T02:39:22;20.90;36.40
74359;DHT22;62792;46.236;6.040;2023-01-26T02:44:33;20.90;36.40
74359;DHT22;62792;46.236;6.040;2023-01-26T02:49:35;20.90;36.30
74359;DHT22;62792;46.236;6.040;2023-01-26T02:54:51;20.90;36.80
74359;DHT22;62792;46.236;6.040;2023-01-26T03:00:15;21.00;36.40
74359;DHT22;62792;46.236;6.040;2023-01-26T03:05:20;21.30;36.00
74359;DHT22;62792;46.236;6.040;2023-01-26T03:10:23;21.30;36.10
74359;DHT22;62792;46.236;6.040;2023-01-26T03:15:28;21.30;36.00
74359;DHT22;62792;46.236;6.040;2023-01-26T03:20:44;21.30;35.90
74359;DHT22;62792;46.236;6.040;2023-01-26T03:26:06;21.20;36.00
74359;DHT22;62792;46.236;6.040;2023-01-26T03:31:29;21.30;36.00
74359;DHT22;62792;46.236;6.040;2023-01-26T03:36:32;21.10;35.80
74359;DHT22;62792;46.236;6.040;2023-01-26T03:41:35;21.00;36.00
74359;DHT22;62792;46.236;6.040;2023-01-26T03:46:57;20.90;35.90
74359;DHT22;62792;46.236;6.040;2023-01-26T03:52:18;21.00;35.90
74359;DHT22;62792;46.236;6.040;2023-01-26T03:57:38;21.10;35.80
74359;DHT22;62792;46.236;6.040;2023-01-26T04:02:42;21.30;35.70
74359;DHT22;62792;46.236;6.040;2023-01-26T04:08:03;21.20;35.80
74359;DHT22;62792;46.236;6.040;2023-01-26T04:13:25;21.20;35.80
74359;DHT22;62792;46.236;6.040;2023-01-26T04:18:47;21.10;35.60
74359;DHT22;62792;46.236;6.040;2023-01-26T04:24:07;20.90;35.90
74359;DHT22;62792;46.236;6.040;2023-01-26T04:29:17;20.80;36.40
74359;DHT22;62792;46.236;6.040;2023-01-26T04:34:21;20.90;36.20
74359;DHT22;62792;46.236;6.040;2023-01-26T04:39:24;20.80;36.30
74359;DHT22;62792;46.236;6.040;2023-01-26T04:44:27;21.00;35.80
74359;DHT22;62792;46.236;6.040;2023-01-26T04:49:31;21.10;35.60
74359;DHT22;62792;46.236;6.040;2023-01-26T04:54:34;21.20;35.60
74359;DHT22;62792;46.236;6.040;2023-01-26T04:59:37;21.20;35.40
74359;DHT22;62792;46.236;6.040;2023-01-26T05:04:41;21.30;35.60
74359;DHT22;62792;46.236;6.040;2023-01-26T05:09:44;21.40;35.80
74359;DHT22;62792;46.236;6.040;2023-01-26T05:14:47;21.40;36.10
74359;DHT22;62792;46.236;6.040;2023-01-26T05:19:51;21.50;36.00
74359;DHT22;62792;46.236;6.040;2023-01-26T05:24:54;21.40;36.10
74359;DHT22;62792;46.236;6.040;2023-01-26T05:29:57;21.40;35.80
74359;DHT22;62792;46.236;6.040;2023-01-26T05:35:02;21.40;35.90
74359;DHT22;62792;46.236;6.040;2023-01-26T05:40:06;21.40;36.00
74359;DHT22;62792;46.236;6.040;2023-01-26T05:45:10;21.40;36.20
74359;DHT22;62792;46.236;6.040;2023-01-26T05:50:15;21.50;35.80
74359;DHT22;62792;46.236;6.040;2023-01-26T05:55:18;21.50;35.70
74359;DHT22;62792;46.236;6.040;2023-01-26T06:00:21;21.50;35.70
74359;DHT22;62792;46.236;6.040;2023-01-26T06:05:26;21.30;35.90
74359;DHT22;62792;46.236;6.040;2023-01-26T06:10:29;21.40;35.80
74359;DHT22;62792;46.236;6.040;2023-01-26T06:15:31;21.50;35.80
74359;DHT22;62792;46.236;6.040;2023-01-26T06:20:36;21.40;35.90
74359;DHT22;62792;46.236;6.040;2023-01-26T06:25:38;21.40;35.80
74359;DHT22;62792;46.236;6.040;2023-01-26T06:30:41;21.40;35.90
74359;DHT22;62792;46.236;6.040;2023-01-26T06:35:46;21.40;35.70
74359;DHT22;62792;46.236;6.040;2023-01-26T06:40:49;21.50;35.80
74359;DHT22;62792;46.236;6.040;2023-01-26T06:45:54;21.40;35.70
74359;DHT22;62792;46.236;6.040;2023-01-26T06:51:03;21.50;35.80
74359;DHT22;62792;46.236;6.040;2023-01-26T06:56:07;21.50;35.70
74359;DHT22;62792;46.236;6.040;2023-01-26T07:01:10;21.50;35.70
74359;DHT22;62792;46.236;6.040;2023-01-26T07:06:18;21.50;35.60
74359;DHT22;62792;46.236;6.040;2023-01-26T07:11:21;21.60;35.60
74359;DHT22;62792;46.236;6.040;2023-01-26T07:16:25;21.60;35.70
74359;DHT22;62792;46.236;6.040;2023-01-26T07:21:30;21.60;35.40
74359;DHT22;62792;46.236;6.040;2023-01-26T07:26:33;21.60;35.50
74359;DHT22;62792;46.236;6.040;2023-01-26T07:31:35;21.70;35.40
74359;DHT22;62792;46.236;6.040;2023-01-26T07:36:40;21.70;35.60
74359;DHT22;62792;46.236;6.040;2023-01-26T07:41:42;21.80;35.40
74359;DHT22;62792;46.236;6.040;2023-01-26T07:46:45;21.70;35.50
74359;DHT22;62792;46.236;6.040;2023-01-26T07:51:50;21.70;35.30
74359;DHT22;62792;46.236;6.040;2023-01-26T07:56:54;21.60;35.80
74359;DHT22;62792;46.236;6.040;2023-01-26T08:01:57;21.60;35.80
74359;DHT22;62792;46.236;6.040;2023-01-26T08:07:01;21.80;36.60
74359;DHT22;62792;46.236;6.040;2023-01-26T08:12:04;22.00;37.00
74359;DHT22;62792;46.236;6.040;2023-01-26T08:17:07;22.30;37.30
74359;DHT22;62792;46.236;6.040;2023-01-26T08:22:12;22.50;37.70
74359;DHT22;62792;46.236;6.040;2023-01-26T08:27:14;22.60;37.70
74359;DHT22;62792;46.236;6.040;2023-01-26T08:32:17;22.60;37.60
74359;DHT22;62792;46.236;6.040;2023-01-26T08:37:22;22.80;37.60
74359;DHT22;62792;46.236;6.040;2023-01-26T08:42:24;23.00;37.40
74359;DHT22;62792;46.236;6.040;2023-01-26T08:47:27;22.90;37.50
74359;DHT22;62792;46.236;6.040;2023-01-26T08:52:31;22.90;37.40
74359;DHT22;62792;46.236;6.040;2023-01-26T08:57:34;22.90;37.20
74359;DHT22;62792;46.236;6.040;2023-01-26T09:02:37;23.20;37.50
74359;DHT22;62792;46.236;6.040;2023-01-26T09:07:42;23.00;37.10
74359;DHT22;62792;46.236;6.040;2023-01-26T09:12:45;22.90;36.80
74359;DHT22;62792;46.236;6.040;2023-01-26T09:17:48;22.70;36.70
74359;DHT22;62792;46.236;6.040;2023-01-26T09:22:52;22.80;36.70
74359;DHT22;62792;46.236;6.040;2023-01-26T09:27:55;22.80;36.90
74359;DHT22;62792;46.236;6.040;2023-01-26T09:32:58;22.80;37.10
74359;DHT22;62792;46.236;6.040;2023-01-26T09:38:03;22.90;37.10
74359;DHT22;62792;46.236;6.040;2023-01-26T09:43:10;23.00;37.10
74359;DHT22;62792;46.236;6.040;2023-01-26T09:48:21;22.90;37.10
74359;DHT22;62792;46.236;6.040;2023-01-26T09:53:32;22.80;37.20
74359;DHT22;62792;46.236;6.040;2023-01-26T09:58:43;22.60;37.10
74359;DHT22;62792;46.236;6.040;2023-01-26T10:03:49;22.40;37.60
74359;DHT22;62792;46.236;6.040;2023-01-26T10:08:59;22.70;36.90
74359;DHT22;62792;46.236;6.040;2023-01-26T10:14:06;23.00;36.80
74359;DHT22;62792;46.236;6.040;2023-01-26T10:19:15;23.10;36.90
74359;DHT22;62792;46.236;6.040;2023-01-26T10:24:24;23.20;36.70
74359;DHT22;62792;46.236;6.040;2023-01-26T10:29:26;23.20;36.40
74359;DHT22;62792;46.236;6.040;2023-01-26T10:34:29;23.20;36.00
74359;DHT22;62792;46.236;6.040;2023-01-26T10:39:34;23.20;37.10
74359;DHT22;62792;46.236;6.040;2023-01-26T10:44:38;23.00;36.60
74359;DHT22;62792;46.236;6.040;2023-01-26T10:49:44;22.70;36.70
74359;DHT22;62792;46.236;6.040;2023-01-26T10:54:48;22.40;36.80
74359;DHT22;62792;46.236;6.040;2023-01-26T10:59:56;22.40;36.90
74359;DHT22;62792;46.236;6.040;2023-01-26T11:05:02;22.30;36.80
74359;DHT22;62792;46.236;6.040;2023-01-26T11:10:18;22.30;37.00
74359;DHT22;62792;46.236;6.040;2023-01-26T11:15:23;22.30;36.80
74359;DHT22;62792;46.236;6.040;2023-01-26T11:20:46;22.50;36.60
74359;DHT22;62792;46.236;6.040;2023-01-26T11:26:02;22.70;36.40
74359;DHT22;62792;46.236;6.040;2023-01-26T11:31:25;22.70;36.40
74359;DHT22;62792;46.236;6.040;2023-01-26T11:36:36;22.40;36.50
74359;DHT22;62792;46.236;6.040;2023-01-26T11:41:47;22.40;36.60
74359;DHT22;62792;46.236;6.040;2023-01-26T11:47:00;22.30;36.50
74359;DHT22;62792;46.236;6.040;2023-01-26T11:52:11;22.20;36.70
74359;DHT22;62792;46.236;6.040;2023-01-26T11:57:21;22.10;36.60
74359;DHT22;62792;46.236;6.040;2023-01-26T12:02:29;22.10;36.60
74359;DHT22;62792;46.236;6.040;2023-01-26T12:07:35;21.90;36.60
74359;DHT22;62792;46.236;6.040;2023-01-26T12:12:54;22.00;36.70
74359;DHT22;62792;46.236;6.040;2023-01-26T12:18:03;21.80;36.40
74359;DHT22;62792;46.236;6.040;2023-01-26T12:23:09;21.80;36.50
74359;DHT22;62792;46.236;6.040;2023-01-26T12:28:17;22.00;36.20
74359;DHT22;62792;46.236;6.040;2023-01-26T12:33:23;22.20;36.30
74359;DHT22;62792;46.236;6.040;2023-01-26T12:38:29;22.20;36.20
74359;DHT22;62792;46.236;6.040;2023-01-26T12:49:05;22.30;36.00
74359;DHT22;62792;46.236;6.040;2023-01-26T12:54:15;22.20;36.30
74359;DHT22;62792;46.236;6.040;2023-01-26T12:59:23;22.10;36.20
74359;DHT22;62792;46.236;6.040;2023-01-26T13:04:48;22.10;36.50
74359;DHT22;62792;46.236;6.040;2023-01-26T13:15:30;22.30;37.10
74359;DHT22;62792;46.236;6.040;2023-01-26T13:20:43;22.20;36.80
74359;DHT22;62792;46.236;6.040;2023-01-26T13:25:47;22.50;37.00
74359;DHT22;62792;46.236;6.040;2023-01-26T13:31:27;22.50;36.80
74359;DHT22;62792;46.236;6.040;2023-01-26T13:36:34;22.50;36.70
74359;DHT22;62792;46.236;6.040;2023-01-26T13:41:44;22.50;36.70
74359;DHT22;62792;46.236;6.040;2023-01-26T13:46:51;22.50;36.80
74359;DHT22;62792;46.236;6.040;2023-01-26T13:51:56;22.60;36.70
74359;DHT22;62792;46.236;6.040;2023-01-26T13:57:01;22.70;36.50
74359;DHT22;62792;46.236;6.040;2023-01-26T14:02:10;22.70;36.80
74359;DHT22;62792;46.236;6.040;2023-01-26T14:07:23;22.60;36.30
74359;DHT22;62792;46.236;6.040;2023-01-26T14:12:28;22.60;36.60
74359;DHT22;62792;46.236;6.040;2023-01-26T14:17:35;22.70;36.70
74359;DHT22;62792;46.236;6.040;2023-01-26T14:23:00;22.70;36.40
74359;DHT22;62792;46.236;6.040;2023-01-26T14:28:04;22.70;36.60
74359;DHT22;62792;46.236;6.040;2023-01-26T14:33:11;22.70;36.60
74359;DHT22;62792;46.236;6.040;2023-01-26T14:38:16;22.70;36.50
74359;DHT22;62792;46.236;6.040;2023-01-26T14:43:20;22.60;36.70
74359;DHT22;62792;46.236;6.040;2023-01-26T14:48:25;22.50;36.70
74359;DHT22;62792;46.236;6.040;2023-01-26T14:53:31;22.50;36.70
74359;DHT22;62792;46.236;6.040;2023-01-26T14:58:35;22.50;36.80
74359;DHT22;62792;46.236;6.040;2023-01-26T15:03:40;22.40;36.50
74359;DHT22;62792;46.236;6.040;2023-01-26T15:08:51;22.10;36.70
74359;DHT22;62792;46.236;6.040;2023-01-26T15:13:55;22.10;36.40
74359;DHT22;62792;46.236;6.040;2023-01-26T15:19:00;22.10;36.60
74359;DHT22;62792;46.236;6.040;2023-01-26T15:24:04;22.10;36.40
74359;DHT22;62792;46.236;6.040;2023-01-26T15:29:14;22.50;36.50
74359;DHT22;62792;46.236;6.040;2023-01-26T15:34:31;22.70;36.70
74359;DHT22;62792;46.236;6.040;2023-01-26T15:39:35;22.70;36.60
74359;DHT22;62792;46.236;6.040;2023-01-26T15:44:39;22.70;36.30
74359;DHT22;62792;46.236;6.040;2023-01-26T15:49:43;22.60;36.60
74359;DHT22;62792;46.236;6.040;2023-01-26T15:54:46;22.60;36.50
74359;DHT22;62792;46.236;6.040;2023-01-26T16:03:30;22.50;36.60
74359;DHT22;62792;46.236;6.040;2023-01-26T16:08:33;22.50;36.70
74359;DHT22;62792;46.236;6.040;2023-01-26T16:13:36;22.40;36.50
74359;DHT22;62792;46.236;6.040;2023-01-26T16:18:41;22.40;36.60
74359;DHT22;62792;46.236;6.040;2023-01-26T16:23:44;22.20;36.70
74359;DHT22;62792;46.236;6.040;2023-01-26T16:28:48;22.20;36.70
74359;DHT22;62792;46.236;6.040;2023-01-26T16:33:52;22.10;36.50
74359;DHT22;62792;46.236;6.040;2023-01-26T16:38:55;22.10;36.60
74359;DHT22;62792;46.236;6.040;2023-01-26T16:43:58;22.20;36.30
74359;DHT22;62792;46.236;6.040;2023-01-26T16:49:04;22.20;36.30
74359;DHT22;62792;46.236;6.040;2023-01-26T16:54:06;22.30;36.10
74359;DHT22;62792;46.236;6.040;2023-01-26T16:59:09;22.20;36.30
74359;DHT22;62792;46.236;6.040;2023-01-26T17:04:14;22.20;36.40
74359;DHT22;62792;46.236;6.040;2023-01-26T17:09:16;22.20;36.20
74359;DHT22;62792;46.236;6.040;2023-01-26T17:14:21;22.20;35.90
74359;DHT22;62792;46.236;6.040;2023-01-26T17:19:26;22.00;36.10
74359;DHT22;62792;46.236;6.040;2023-01-26T17:24:29;22.00;35.90
74359;DHT22;62792;46.236;6.040;2023-01-26T17:29:32;22.00;36.00
74359;DHT22;62792;46.236;6.040;2023-01-26T17:34:37;22.00;35.80
74359;DHT22;62792;46.236;6.040;2023-01-26T17:39:40;21.90;35.90
74359;DHT22;62792;46.236;6.040;2023-01-26T17:44:43;21.90;35.80
74359;DHT22;62792;46.236;6.040;2023-01-26T17:49:47;21.90;36.00
74359;DHT22;62792;46.236;6.040;2023-01-26T17:54:50;21.90;35.90
74359;DHT22;62792;46.236;6.040;2023-01-26T17:59:53;21.90;35.90
74359;DHT22;62792;46.236;6.040;2023-01-26T18:04:58;21.90;35.70
74359;DHT22;62792;46.236;6.040;2023-01-26T18:10:01;21.90;35.70
74359;DHT22;62792;46.236;6.040;2023-01-26T18:15:05;22.00;35.70
74359;DHT22;62792;46.236;6.040;2023-01-26T18:20:10;22.00;35.70
74359;DHT22;62792;46.236;6.040;2023-01-26T18:25:15;22.10;35.50
74359;DHT22;62792;46.236;6.040;2023-01-26T18:30:20;22.00;35.50
74359;DHT22;62792;46.236;6.040;2023-01-26T18:35:25;22.00;35.60
74359;DHT22;62792;46.236;6.040;2023-01-26T18:40:28;22.00;35.50
74359;DHT22;62792;46.236;6.040;2023-01-26T18:45:31;21.90;35.70
74359;DHT22;62792;46.236;6.040;2023-01-26T18:50:35;21.90;35.60
74359;DHT22;62792;46.236;6.040;2023-01-26T18:55:40;21.90;35.60
74359;DHT22;62792;46.236;6.040;2023-01-26T19:00:43;21.80;35.60
74359;DHT22;62792;46.236;6.040;2023-01-26T19:05:47;21.90;35.50
74359;DHT22;62792;46.236;6.040;2023-01-26T19:10:50;21.80;35.60
74359;DHT22;62792;46.236;6.040;2023-01-26T19:15:53;21.90;35.30
74359;DHT22;62792;46.236;6.040;2023-01-26T19:20:57;21.90;35.40
74359;DHT22;62792;46.236;6.040;2023-01-26T19:26:04;21.90;35.40
74359;DHT22;62792;46.236;6.040;2023-01-26T19:31:10;22.00;35.30
74359;DHT22;62792;46.236;6.040;2023-01-26T19:36:15;22.00;35.50
74359;DHT22;62792;46.236;6.040;2023-01-26T19:41:19;22.00;35.20
74359;DHT22;62792;46.236;6.040;2023-01-26T19:46:23;22.00;35.30
74359;DHT22;62792;46.236;6.040;2023-01-26T19:51:27;22.00;35.30
74359;DHT22;62792;46.236;6.040;2023-01-26T19:56:31;22.10;35.40
74359;DHT22;62792;46.236;6.040;2023-01-26T20:01:36;22.10;35.30
74359;DHT22;62792;46.236;6.040;2023-01-26T20:06:41;22.00;35.40
74359;DHT22;62792;46.236;6.040;2023-01-26T20:11:44;22.10;34.90
74359;DHT22;62792;46.236;6.040;2023-01-26T20:16:47;22.10;35.20
74359;DHT22;62792;46.236;6.040;2023-01-26T20:21:51;22.10;35.30
74359;DHT22;62792;46.236;6.040;2023-01-26T20:26:54;22.20;35.20
74359;DHT22;62792;46.236;6.040;2023-01-26T20:31:57;22.00;35.20
74359;DHT22;62792;46.236;6.040;2023-01-26T20:37:01;22.10;35.40
74359;DHT22;62792;46.236;6.040;2023-01-26T20:42:04;22.10;35.30
74359;DHT22;62792;46.236;6.040;2023-01-26T20:47:08;22.00;35.30
74359;DHT22;62792;46.236;6.040;2023-01-26T20:52:14;22.00;35.30
74359;DHT22;62792;46.236;6.040;2023-01-26T20:57:18;22.00;35.10
74359;DHT22;62792;46.236;6.040;2023-01-26T21:02:20;22.10;35.20
74359;DHT22;62792;46.236;6.040;2023-01-26T21:07:25;22.00;35.30
74359;DHT22;62792;46.236;6.040;2023-01-26T21:12:29;22.10;35.30
74359;DHT22;62792;46.236;6.040;2023-01-26T21:17:31;22.10;35.10
74359;DHT22;62792;46.236;6.040;2023-01-26T21:22:36;22.10;35.20
74359;DHT22;62792;46.236;6.040;2023-01-26T21:27:39;22.10;35.10
74359;DHT22;62792;46.236;6.040;2023-01-26T21:32:42;22.10;35.10
74359;DHT22;62792;46.236;6.040;2023-01-26T21:37:46;22.10;35.10
74359;DHT22;62792;46.236;6.040;2023-01-26T21:42:49;22.20;35.00
74359;DHT22;62792;46.236;6.040;2023-01-26T21:47:52;22.10;34.90
74359;DHT22;62792;46.236;6.040;2023-01-26T21:53:10;22.10;35.10
74359;DHT22;62792;46.236;6.040;2023-01-26T21:58:13;22.20;35.10
74359;DHT22;62792;46.236;6.040;2023-01-26T22:03:33;22.10;35.10
74359;DHT22;62792;46.236;6.040;2023-01-26T22:08:38;22.10;35.00
74359;DHT22;62792;46.236;6.040;2023-01-26T22:13:42;22.20;34.80
74359;DHT22;62792;46.236;6.040;2023-01-26T22:18:46;22.10;35.20
74359;DHT22;62792;46.236;6.040;2023-01-26T22:23:51;22.10;35.20
74359;DHT22;62792;46.236;6.040;2023-01-26T22:28:54;22.10;35.20
74359;DHT22;62792;46.236;6.040;2023-01-26T22:33:59;22.10;34.90
74359;DHT22;62792;46.236;6.040;2023-01-26T22:39:04;22.20;35.00
74359;DHT22;62792;46.236;6.040;2023-01-26T22:44:08;22.10;34.90
74359;DHT22;62792;46.236;6.040;2023-01-26T22:49:11;22.10;34.90
74359;DHT22;62792;46.236;6.040;2023-01-26T22:54:15;22.10;34.80
74359;DHT22;62792;46.236;6.040;2023-01-26T22:59:18;22.10;34.80
74359;DHT22;62792;46.236;6.040;2023-01-26T23:04:21;22.20;34.80
74359;DHT22;62792;46.236;6.040;2023-01-26T23:09:25;22.20;34.80
74359;DHT22;62792;46.236;6.040;2023-01-26T23:14:29;22.30;35.00
74359;DHT22;62792;46.236;6.040;2023-01-26T23:19:33;22.20;34.90
74359;DHT22;62792;46.236;6.040;2023-01-26T23:24:38;22.20;34.80
74359;DHT22;62792;46.236;6.040;2023-01-26T23:30:01;22.20;34.90
74359;DHT22;62792;46.236;6.040;2023-01-26T23:35:05;22.20;34.80
74359;DHT22;62792;46.236;6.040;2023-01-26T23:40:10;22.10;34.70
74359;DHT22;62792;46.236;6.040;2023-01-26T23:45:14;22.10;34.80
74359;DHT22;62792;46.236;6.040;2023-01-26T23:50:17;22.10;34.80
74359;DHT22;62792;46.236;6.040;2023-01-26T23:55:22;22.10;34.50
